createdAt,value
2023-02-08T00:00:59.070Z,103347.14
2023-02-08T00:03:26.984Z,103346.26
2023-02-08T00:05:54.801Z,103351.43
2023-02-08T00:08:22.563Z,103352.73
2023-02-08T00:10:50.742Z,103344.34
2023-02-08T00:13:18.518Z,103339.13
2023-02-08T00:15:47.132Z,103348.81
2023-02-08T00:18:15.288Z,103333.28
2023-02-08T00:20:43.785Z,103330.05
2023-02-08T00:23:12.029Z,103325.11
2023-02-08T00:25:40.381Z,103330.05
2023-02-08T00:28:09.534Z,103319.26
2023-02-08T00:30:37.409Z,103317.52
2023-02-08T00:33:05.640Z,103317.52
2023-02-08T00:35:33.637Z,103309.12
2023-02-08T00:38:01.633Z,103305.66
2023-02-08T00:40:29.479Z,103298.33
2023-02-08T00:42:57.415Z,103301.99
2023-02-08T00:45:25.387Z,103308.04
2023-02-08T00:47:53.133Z,103301.56
2023-02-08T00:50:20.915Z,103298.33
2023-02-08T00:52:48.703Z,103293.13
2023-02-08T00:55:16.755Z,103293.78
2023-02-08T00:57:44.825Z,103285.58
2023-02-08T01:00:13.307Z,103291.82
2023-02-08T01:02:41.131Z,103289.24
2023-02-08T01:05:09.194Z,103282.77
2023-02-08T01:07:38.703Z,103281.69
2023-02-08T01:10:07.217Z,103273.05
2023-02-08T01:12:35.123Z,103264.62
2023-02-08T01:15:02.999Z,103278.22
2023-02-08T01:17:30.877Z,103273.09
2023-02-08T01:19:58.784Z,103278.02
2023-02-08T01:22:26.535Z,103276.09
2023-02-08T01:24:54.417Z,103271.75
2023-02-08T01:27:22.323Z,103270.90
2023-02-08T01:29:50.110Z,103271.55
2023-02-08T01:32:17.893Z,103270.24
2023-02-08T01:34:45.714Z,103262.07
2023-02-08T01:37:13.480Z,103265.70
2023-02-08T01:39:41.659Z,103260.11
2023-02-08T01:42:14.651Z,103257.72
2023-02-08T01:45:24.554Z,103260.92
2023-02-08T01:47:57.071Z,103263.09
2023-02-08T01:50:25.715Z,103256.84
2023-02-08T01:52:53.517Z,103258.80
2023-02-08T01:55:33.066Z,103262.23
2023-02-08T01:58:02.495Z,103266.98
2023-02-08T02:00:30.392Z,103260.27
2023-02-08T02:02:58.214Z,103255.95
2023-02-08T02:05:35.621Z,103254.45
2023-02-08T02:08:03.638Z,103252.52
2023-02-08T02:10:33.571Z,103247.78
2023-02-08T02:13:10.639Z,103255.30
2023-02-08T02:15:38.524Z,103245.16
2023-02-08T02:18:07.256Z,103247.09
2023-02-08T02:20:58.127Z,103247.52
2023-02-08T02:23:31.892Z,103245.98
2023-02-08T02:26:02.696Z,103248.60
2023-02-08T02:28:45.559Z,103240.59
2023-02-08T02:31:16.349Z,103234.34
2023-02-08T02:34:13.942Z,103243.17
2023-02-08T02:36:51.330Z,103242.48
2023-02-08T02:39:21.768Z,103234.08
2023-02-08T02:42:28.843Z,103232.38
2023-02-08T02:45:09.804Z,103237.13
2023-02-08T02:47:57.083Z,103226.76
2023-02-08T02:50:30.592Z,103223.95
2023-02-08T02:53:32.800Z,103225.25
2023-02-08T02:56:22.701Z,103226.33
2023-02-08T02:58:50.749Z,103227.84
2023-02-08T03:01:27.234Z,103234.93
2023-02-08T03:03:55.473Z,103229.54
2023-02-08T03:06:35.232Z,103231.70
2023-02-08T03:09:10.147Z,103227.34
2023-02-08T03:11:38.189Z,103224.11
2023-02-08T03:14:28.452Z,103234.27
2023-02-08T03:17:10.052Z,103221.13
2023-02-08T03:19:38.635Z,103220.25
2023-02-08T03:22:18.673Z,103228.00
2023-02-08T03:25:18.797Z,103225.19
2023-02-08T03:28:05.319Z,103223.48
2023-02-08T03:30:53.210Z,103217.63
2023-02-08T03:33:52.438Z,103221.52
2023-02-08T03:36:27.050Z,103216.33
2023-02-08T03:38:54.916Z,103224.08
2023-02-08T03:41:28.128Z,103219.30
2023-02-08T03:43:59.560Z,103222.34
2023-02-08T03:46:30.329Z,103222.77
2023-02-08T03:49:02.086Z,103218.45
2023-02-08T03:51:29.938Z,103219.73
2023-02-08T03:53:59.054Z,103219.07
2023-02-08T03:56:40.311Z,103215.41
2023-02-08T03:59:10.795Z,103218.19
2023-02-08T04:01:48.017Z,103214.37
2023-02-08T04:04:16.245Z,103210.90
2023-02-08T04:06:44.045Z,103216.91
2023-02-08T04:09:11.952Z,103210.64
2023-02-08T04:11:39.739Z,103211.06
2023-02-08T04:14:07.672Z,103201.62
2023-02-08T04:16:35.579Z,103198.38
2023-02-08T04:19:03.461Z,103196.22
2023-02-08T04:21:31.267Z,103189.98
2023-02-08T04:23:59.029Z,103189.35
2023-02-08T04:26:26.803Z,103188.66
2023-02-08T04:28:54.606Z,103196.19
2023-02-08T04:31:22.508Z,103191.25
2023-02-08T04:33:50.372Z,103194.26
2023-02-08T04:36:18.210Z,103188.86
2023-02-08T04:38:45.992Z,103198.54
2023-02-08T04:41:13.808Z,103194.03
2023-02-08T04:43:41.620Z,103194.03
2023-02-08T04:46:09.412Z,103191.64
2023-02-08T04:48:37.232Z,103194.19
2023-02-08T04:51:05.085Z,103193.54
2023-02-08T04:53:32.872Z,103197.00
2023-02-08T04:56:00.610Z,103190.30
2023-02-08T04:58:28.344Z,103189.02
2023-02-08T05:00:56.090Z,103191.18
2023-02-08T05:03:23.891Z,103187.91
2023-02-08T05:06:01.085Z,103185.95
2023-02-08T05:08:29.265Z,103191.15
2023-02-08T05:10:57.137Z,103187.29
2023-02-08T05:13:24.925Z,103187.29
2023-02-08T05:15:52.801Z,103176.96
2023-02-08T05:18:20.605Z,103180.79
2023-02-08T05:20:58.419Z,103180.85
2023-02-08T05:23:26.973Z,103173.92
2023-02-08T05:25:54.946Z,103177.81
2023-02-08T05:28:22.860Z,103181.70
2023-02-08T05:30:50.745Z,103180.62
2023-02-08T05:33:18.823Z,103181.44
2023-02-08T05:35:52.938Z,103182.95
2023-02-08T05:38:21.157Z,103169.11
2023-02-08T05:40:49.079Z,103180.75
2023-02-08T05:43:16.874Z,103173.20
2023-02-08T05:45:44.611Z,103175.36
2023-02-08T05:48:12.365Z,103177.48
2023-02-08T05:50:40.499Z,103174.67
2023-02-08T05:53:08.745Z,103180.46
2023-02-08T05:55:36.581Z,103185.66
2023-02-08T05:58:04.413Z,103191.67
2023-02-08T06:00:32.254Z,103200.08
2023-02-08T06:03:00.041Z,103208.67
2023-02-08T06:05:28.008Z,103197.88
2023-02-08T06:07:55.892Z,103196.19
2023-02-08T06:10:23.807Z,103208.64
2023-02-08T06:12:51.713Z,103203.90
2023-02-08T06:15:19.564Z,103208.64
2023-02-08T06:17:47.342Z,103210.77
2023-02-08T06:20:15.067Z,103218.29
2023-02-08T06:22:42.893Z,103223.62
2023-02-08T06:25:10.668Z,103206.65
2023-02-08T06:27:38.478Z,103218.48
2023-02-08T06:30:06.398Z,103210.31
2023-02-08T06:32:34.243Z,103209.85
2023-02-08T06:35:02.364Z,103219.30
2023-02-08T06:37:30.159Z,103216.33
2023-02-08T06:40:00.510Z,103212.17
2023-02-08T06:42:28.389Z,103223.20
2023-02-08T06:44:57.133Z,103221.66
2023-02-08T06:47:25.536Z,103219.53
2023-02-08T06:49:53.509Z,103211.12
2023-02-08T06:52:21.675Z,103218.45
2023-02-08T06:54:49.510Z,103212.86
2023-02-08T06:57:17.417Z,103217.41
2023-02-08T06:59:45.258Z,103216.06
2023-02-08T07:02:17.913Z,103215.94
2023-02-08T07:04:46.601Z,103221.66
2023-02-08T07:07:14.903Z,103217.47
2023-02-08T07:09:42.744Z,103221.27
2023-02-08T07:12:10.776Z,103217.30
2023-02-08T07:14:41.246Z,103223.29
2023-02-08T07:17:09.320Z,103223.45
2023-02-08T07:19:37.087Z,103236.37
2023-02-08T07:22:09.294Z,103234.21
2023-02-08T07:24:41.266Z,103234.21
2023-02-08T07:27:10.188Z,103235.91
2023-02-08T07:29:38.076Z,103238.73
2023-02-08T07:32:06.312Z,103236.34
2023-02-08T07:34:36.293Z,103241.73
2023-02-08T07:37:04.187Z,103238.73
2023-02-08T07:39:32.719Z,103240.88
2023-02-08T07:42:01.014Z,103252.72
2023-02-08T07:44:28.785Z,103233.79
2023-02-08T07:46:56.659Z,103237.91
2023-02-08T07:49:24.544Z,103233.66
2023-02-08T07:51:52.298Z,103240.95
2023-02-08T07:54:20.086Z,103245.07
2023-02-08T07:56:47.946Z,103243.20
2023-02-08T07:59:15.934Z,103252.52
2023-02-08T08:01:43.893Z,103249.58
2023-02-08T08:04:11.740Z,103247.45
2023-02-08T08:06:39.606Z,103247.75
2023-02-08T08:09:07.471Z,103245.43
2023-02-08T08:11:36.716Z,103242.02
2023-02-08T08:14:04.807Z,103258.47
2023-02-08T08:16:32.785Z,103257.82
2023-02-08T08:19:00.620Z,103259.75
2023-02-08T08:21:28.529Z,103255.59
2023-02-08T08:23:56.644Z,103252.55
2023-02-08T08:26:24.608Z,103260.27
2023-02-08T08:28:52.576Z,103259.39
2023-02-08T08:31:23.220Z,103253.66
2023-02-08T08:33:51.559Z,103250.33
2023-02-08T08:36:19.618Z,103246.34
2023-02-08T08:38:47.659Z,103254.35
2023-02-08T08:41:18.315Z,103245.82
2023-02-08T08:43:46.225Z,103250.04
2023-02-08T08:46:14.112Z,103246.08
2023-02-08T08:48:41.972Z,103249.02
2023-02-08T08:51:09.844Z,103253.60
2023-02-08T08:53:38.494Z,103241.93
2023-02-08T08:56:06.722Z,103251.18
2023-02-08T08:58:34.647Z,103240.69
2023-02-08T09:01:02.814Z,103255.46
2023-02-08T09:03:31.076Z,103239.21
2023-02-08T09:05:58.970Z,103241.73
2023-02-08T09:08:26.823Z,103246.05
2023-02-08T09:10:54.820Z,103254.52
2023-02-08T09:13:23.069Z,103244.09
2023-02-08T09:15:51.075Z,103241.73
2023-02-08T09:18:19.131Z,103238.53
2023-02-08T09:20:47.146Z,103247.84
2023-02-08T09:23:15.900Z,103249.74
2023-02-08T09:25:43.967Z,103253.47
2023-02-08T09:28:11.796Z,103246.63
2023-02-08T09:30:39.800Z,103250.10
2023-02-08T09:33:08.000Z,103253.93
2023-02-08T09:35:35.837Z,103255.59
2023-02-08T09:38:05.791Z,103254.05
2023-02-08T09:41:09.568Z,103243.66
2023-02-08T09:43:55.903Z,103249.68
2023-02-08T09:46:25.371Z,103234.15
2023-02-08T09:48:53.687Z,103232.58
2023-02-08T09:51:43.143Z,103240.20
2023-02-08T09:54:22.738Z,103243.37
2023-02-08T09:56:51.342Z,103249.16
2023-02-08T09:59:28.108Z,103239.34
2023-02-08T10:02:12.568Z,103250.52
2023-02-08T10:04:59.718Z,103240.95
2023-02-08T10:07:28.009Z,103242.05
2023-02-08T10:10:01.168Z,103246.08
2023-02-08T10:12:46.985Z,103247.39
2023-02-08T10:15:22.991Z,103243.20
2023-02-08T10:18:02.658Z,103243.82
2023-02-08T10:20:54.687Z,103245.46
2023-02-08T10:23:22.711Z,103250.04
2023-02-08T10:26:09.829Z,103244.34
2023-02-08T10:29:05.886Z,103259.52
2023-02-08T10:31:43.753Z,103244.45
2023-02-08T10:34:31.096Z,103246.80
2023-02-08T10:36:58.975Z,103241.99
2023-02-08T10:39:33.724Z,103241.54
2023-02-08T10:42:04.745Z,103234.18
2023-02-08T10:44:37.795Z,103236.30
2023-02-08T10:47:16.579Z,103232.15
2023-02-08T10:49:58.568Z,103223.20
2023-02-08T10:52:26.341Z,103224.47
2023-02-08T10:54:54.300Z,103221.52
2023-02-08T10:57:25.093Z,103222.77
2023-02-08T11:00:00.098Z,103229.44
2023-02-08T11:02:40.961Z,103229.83
2023-02-08T11:05:13.687Z,103225.52
2023-02-08T11:07:41.537Z,103215.34
2023-02-08T11:10:22.239Z,103211.78
2023-02-08T11:13:09.249Z,103214.85
2023-02-08T11:15:41.599Z,103205.70
2023-02-08T11:18:14.783Z,103201.38
2023-02-08T11:20:42.724Z,103191.22
2023-02-08T11:23:41.307Z,103194.78
2023-02-08T11:26:34.798Z,103198.12
2023-02-08T11:29:21.737Z,103192.75
2023-02-08T11:32:03.606Z,103186.64
2023-02-08T11:34:31.343Z,103181.96
2023-02-08T11:36:59.550Z,103179.87
2023-02-08T11:39:51.061Z,103170.52
2023-02-08T11:42:22.003Z,103169.34
2023-02-08T11:44:50.278Z,103155.77
2023-02-08T11:47:21.454Z,103169.87
2023-02-08T11:49:54.219Z,103164.14
2023-02-08T11:52:26.977Z,103157.21
2023-02-08T11:55:22.898Z,103162.34
2023-02-08T11:58:13.649Z,103157.60
2023-02-08T12:00:41.873Z,103155.45
2023-02-08T12:03:22.430Z,103153.13
2023-02-08T12:06:22.817Z,103149.89
2023-02-08T12:09:10.823Z,103146.29
2023-02-08T12:11:45.343Z,103150.54
2023-02-08T12:14:38.346Z,103136.84
2023-02-08T12:17:18.505Z,103134.75
2023-02-08T12:19:46.173Z,103134.84
2023-02-08T12:22:40.710Z,103129.26
2023-02-08T12:25:35.657Z,103128.41
2023-02-08T12:28:17.726Z,103114.51
2023-02-08T12:30:46.678Z,103107.97
2023-02-08T12:33:19.605Z,103097.09
2023-02-08T12:36:03.064Z,103098.91
2023-02-08T12:39:21.686Z,103100.84
2023-02-08T12:42:23.256Z,103091.55
2023-02-08T12:44:56.782Z,103086.91
2023-02-08T12:48:04.369Z,103080.08
2023-02-08T12:50:38.734Z,103075.70
2023-02-08T12:53:39.620Z,103068.51
2023-02-08T12:56:09.582Z,103061.87
2023-02-08T12:58:44.700Z,103055.95
2023-02-08T13:01:17.128Z,103052.16
2023-02-08T13:03:53.272Z,103047.32
2023-02-08T13:06:33.408Z,103043.56
2023-02-08T13:09:07.387Z,103044.18
2023-02-08T13:12:05.233Z,103047.02
2023-02-08T13:14:37.507Z,103033.98
2023-02-08T13:17:17.399Z,103034.30
2023-02-08T13:20:04.313Z,103033.33
2023-02-08T13:22:33.522Z,103040.39
2023-02-08T13:25:07.676Z,103038.30
2023-02-08T13:27:36.174Z,103027.21
2023-02-08T13:30:04.509Z,103032.02
2023-02-08T13:32:36.530Z,103038.27
2023-02-08T13:35:08.497Z,103034.41
2023-02-08T13:37:36.526Z,103028.52
2023-02-08T13:40:29.148Z,103028.52
2023-02-08T13:43:04.925Z,103025.48
2023-02-08T13:45:43.521Z,103028.32
2023-02-08T13:48:16.313Z,103031.01
2023-02-08T13:50:58.016Z,103018.22
2023-02-08T13:53:41.696Z,103015.57
2023-02-08T13:56:10.792Z,103025.61
2023-02-08T13:58:39.654Z,103025.61
2023-02-08T14:01:16.308Z,103019.43
2023-02-08T14:03:44.258Z,103030.16
2023-02-08T14:06:23.629Z,103012.20
2023-02-08T14:09:07.768Z,103018.22
2023-02-08T14:11:43.900Z,103009.82
2023-02-08T14:14:20.908Z,103010.96
2023-02-08T14:17:05.354Z,103009.39
2023-02-08T14:19:34.494Z,103006.38
2023-02-08T14:22:16.961Z,103020.61
2023-02-08T14:24:49.339Z,103024.83
2023-02-08T14:27:31.374Z,103016.84
2023-02-08T14:30:17.334Z,103022.11
2023-02-08T14:32:53.187Z,103026.43
2023-02-08T14:35:24.003Z,103023.81
2023-02-08T14:38:12.397Z,103020.05
2023-02-08T14:40:59.978Z,103022.05
2023-02-08T14:43:41.777Z,103029.60
2023-02-08T14:46:40.633Z,103029.04
2023-02-08T14:49:15.097Z,103029.40
2023-02-08T14:52:00.530Z,103022.57
2023-02-08T14:54:37.374Z,103033.03
2023-02-08T14:57:06.687Z,103031.98
2023-02-08T14:59:35.717Z,103023.48
2023-02-08T15:02:05.351Z,103025.45
2023-02-08T15:04:33.263Z,103034.11
2023-02-08T15:07:34.235Z,103039.57
2023-02-08T15:10:07.054Z,103027.90
2023-02-08T15:12:36.879Z,103026.88
2023-02-08T15:15:05.144Z,103028.48
2023-02-08T15:17:38.407Z,103030.84
2023-02-08T15:20:08.778Z,103025.71
2023-02-08T15:22:41.269Z,103039.15
2023-02-08T15:25:23.961Z,103031.95
2023-02-08T15:27:54.558Z,103037.64
2023-02-08T15:30:25.996Z,103042.84
2023-02-08T15:32:53.853Z,103035.84
2023-02-08T15:35:22.052Z,103030.09
2023-02-08T15:37:49.996Z,103031.01
2023-02-08T15:40:29.334Z,103026.91
2023-02-08T15:43:03.385Z,103042.32
2023-02-08T15:45:33.962Z,103039.63
2023-02-08T15:48:02.130Z,103040.23
2023-02-08T15:50:30.035Z,103037.45
2023-02-08T15:53:06.176Z,103042.71
2023-02-08T15:55:45.046Z,103035.09
2023-02-08T15:58:29.752Z,103048.59
2023-02-08T16:00:58.746Z,103044.54
2023-02-08T16:03:26.691Z,103054.80
2023-02-08T16:06:02.439Z,103058.34
2023-02-08T16:08:35.344Z,103056.34
2023-02-08T16:11:05.206Z,103061.77
2023-02-08T16:13:35.202Z,103058.44
2023-02-08T16:16:15.241Z,103059.77
2023-02-08T16:18:47.182Z,103066.02
2023-02-08T16:21:25.083Z,103060.13
2023-02-08T16:24:12.003Z,103070.80
2023-02-08T16:26:58.545Z,103079.13
2023-02-08T16:29:28.926Z,103073.58
2023-02-08T16:32:07.978Z,103079.40
2023-02-08T16:34:39.166Z,103072.46
2023-02-08T16:37:08.153Z,103076.78
2023-02-08T16:39:54.945Z,103076.39
2023-02-08T16:42:22.727Z,103074.66
2023-02-08T16:45:09.290Z,103084.70
2023-02-08T16:47:38.948Z,103077.17
2023-02-08T16:50:07.709Z,103079.23
2023-02-08T16:52:35.770Z,103074.30
2023-02-08T16:55:03.811Z,103079.52
2023-02-08T16:57:41.117Z,103088.23
2023-02-08T17:00:39.137Z,103088.45
2023-02-08T17:03:07.139Z,103099.24
2023-02-08T17:05:39.004Z,103090.61
2023-02-08T17:08:11.204Z,103081.65
2023-02-08T17:10:39.148Z,103094.63
2023-02-08T17:13:19.954Z,103094.53
2023-02-08T17:15:49.609Z,103093.75
2023-02-08T17:18:17.671Z,103090.67
2023-02-08T17:20:45.622Z,103090.74
2023-02-08T17:23:13.807Z,103091.20
2023-02-08T17:25:41.977Z,103081.06
2023-02-08T17:28:15.764Z,103092.05
2023-02-08T17:30:43.909Z,103099.24
2023-02-08T17:33:18.986Z,103097.09
2023-02-08T17:35:48.322Z,103085.58
2023-02-08T17:38:16.766Z,103087.27
2023-02-08T17:40:44.645Z,103095.41
2023-02-08T17:43:12.937Z,103100.84
2023-02-08T17:45:41.735Z,103098.88
2023-02-08T17:48:09.933Z,103102.12
2023-02-08T17:50:37.973Z,103100.91
2023-02-08T17:53:06.007Z,103098.59
2023-02-08T17:55:33.864Z,103102.77
2023-02-08T17:58:01.752Z,103101.66
2023-02-08T18:00:29.760Z,103102.55
2023-02-08T18:03:00.531Z,103103.82
2023-02-08T18:05:29.238Z,103100.35
2023-02-08T18:07:57.817Z,103099.27
2023-02-08T18:10:26.092Z,103102.71
2023-02-08T18:12:53.863Z,103108.59
2023-02-08T18:15:22.467Z,103110.16
2023-02-08T18:17:51.571Z,103111.02
2023-02-08T18:20:19.529Z,103115.36
2023-02-08T18:22:47.494Z,103106.08
2023-02-08T18:25:15.522Z,103100.52
2023-02-08T18:27:43.514Z,103103.07
2023-02-08T18:30:12.221Z,103108.76
2023-02-08T18:32:40.824Z,103113.73
2023-02-08T18:35:09.253Z,103106.83
2023-02-08T18:37:37.624Z,103102.05
2023-02-08T18:40:06.554Z,103103.55
2023-02-08T18:42:36.083Z,103109.61
2023-02-08T18:45:05.363Z,103100.74
2023-02-08T18:47:33.753Z,103100.55
2023-02-08T18:50:01.639Z,103108.40
2023-02-08T18:52:31.455Z,103100.38
2023-02-08T18:54:59.606Z,103094.60
2023-02-08T18:57:27.508Z,103098.69
2023-02-08T18:59:55.461Z,103094.34
2023-02-08T19:02:23.889Z,103092.57
2023-02-08T19:04:51.814Z,103089.76
2023-02-08T19:07:19.732Z,103085.45
2023-02-08T19:09:47.610Z,103077.04
2023-02-08T19:12:16.596Z,103085.67
2023-02-08T19:14:44.744Z,103078.09
2023-02-08T19:17:14.810Z,103087.18
2023-02-08T19:19:42.968Z,103080.44
2023-02-08T19:22:10.994Z,103072.01
2023-02-08T19:24:38.832Z,103076.59
2023-02-08T19:27:06.788Z,103077.01
2023-02-08T19:29:35.830Z,103079.13
2023-02-08T19:32:03.838Z,103076.32
2023-02-08T19:34:31.706Z,103075.05
2023-02-08T19:36:59.528Z,103075.66
2023-02-08T19:39:27.941Z,103075.93
2023-02-08T19:41:56.186Z,103084.37
2023-02-08T19:44:24.115Z,103086.52
2023-02-08T19:46:54.185Z,103077.66
2023-02-08T19:49:22.726Z,103080.73
2023-02-08T19:51:50.675Z,103072.95
2023-02-08T19:54:19.486Z,103076.45
2023-02-08T19:56:47.483Z,103073.84
2023-02-08T19:59:35.583Z,103067.16
2023-02-08T20:02:03.507Z,103077.95
2023-02-08T20:04:31.473Z,103074.30
2023-02-08T20:06:59.574Z,103074.06
2023-02-08T20:09:27.474Z,103082.93
2023-02-08T20:11:57.746Z,103076.45
2023-02-08T20:14:27.318Z,103077.76
2023-02-08T20:16:55.445Z,103069.78
2023-02-08T20:19:23.507Z,103071.74
2023-02-08T20:21:51.675Z,103074.13
2023-02-08T20:24:19.651Z,103070.93
2023-02-08T20:26:48.032Z,103067.46
2023-02-08T20:29:16.042Z,103060.13
2023-02-08T20:31:46.212Z,103063.34
2023-02-08T20:34:15.303Z,103068.31
2023-02-08T20:36:57.537Z,103066.41
2023-02-08T20:39:33.237Z,103061.45
2023-02-08T20:42:01.267Z,103065.99
2023-02-08T20:44:29.704Z,103064.29
2023-02-08T20:46:57.604Z,103054.35
2023-02-08T20:49:27.007Z,103069.48
2023-02-08T20:51:55.278Z,103066.87
2023-02-08T20:54:25.507Z,103069.91
2023-02-08T20:56:53.771Z,103073.38
2023-02-08T20:59:21.732Z,103069.52
2023-02-08T21:01:49.913Z,103079.91
2023-02-08T21:04:19.077Z,103071.94
2023-02-08T21:06:47.576Z,103081.88
2023-02-08T21:09:16.192Z,103075.63
2023-02-08T21:11:46.478Z,103070.89
2023-02-08T21:14:16.700Z,103070.70
2023-02-08T21:16:44.573Z,103074.78
2023-02-08T21:19:14.203Z,103077.40
2023-02-08T21:21:42.870Z,103070.70
2023-02-08T21:24:12.505Z,103073.09
2023-02-08T21:26:40.335Z,103081.48
2023-02-08T21:29:09.182Z,103072.23
2023-02-08T21:31:39.813Z,103070.50
2023-02-08T21:34:07.829Z,103066.19
2023-02-08T21:36:35.702Z,103076.12
2023-02-08T21:39:03.729Z,103078.28
2023-02-08T21:41:33.551Z,103071.38
2023-02-08T21:44:04.375Z,103075.90
2023-02-08T21:46:35.264Z,103082.60
2023-02-08T21:49:21.921Z,103084.98
2023-02-08T21:52:08.246Z,103084.76
2023-02-08T21:54:53.342Z,103080.87
2023-02-08T21:57:28.984Z,103079.59
2023-02-08T22:00:00.782Z,103082.80
2023-02-08T22:02:29.928Z,103084.76
2023-02-08T22:05:01.949Z,103070.73
2023-02-08T22:07:29.983Z,103072.46
2023-02-08T22:09:57.770Z,103079.16
2023-02-08T22:12:25.725Z,103077.40
2023-02-08T22:14:53.650Z,103083.25
2023-02-08T22:17:21.569Z,103081.52
2023-02-08T22:19:49.437Z,103070.96
2023-02-08T22:22:17.374Z,103077.40
2023-02-08T22:24:45.341Z,103077.63
2023-02-08T22:27:13.105Z,103076.78
2023-02-08T22:29:40.961Z,103078.25
2023-02-08T22:32:10.928Z,103074.36
2023-02-08T22:34:39.385Z,103073.94
2023-02-08T22:37:07.250Z,103068.34
2023-02-08T22:39:35.420Z,103073.94
2023-02-08T22:42:09.269Z,103079.30
2023-02-08T22:44:37.468Z,103079.52
2023-02-08T22:47:06.153Z,103086.23
2023-02-08T22:49:34.728Z,103079.30
2023-02-08T22:52:02.679Z,103087.90
2023-02-08T22:54:30.612Z,103087.44
2023-02-08T22:56:58.478Z,103091.76
2023-02-08T22:59:26.286Z,103089.59
2023-02-08T23:01:56.460Z,103093.45
2023-02-08T23:04:24.360Z,103078.41
2023-02-08T23:06:52.332Z,103095.19
2023-02-08T23:09:20.559Z,103082.66
2023-02-08T23:11:48.425Z,103088.26
2023-02-08T23:14:16.368Z,103088.26
2023-02-08T23:16:44.305Z,103088.06
2023-02-08T23:19:16.447Z,103090.02
2023-02-08T23:21:44.874Z,103091.07
2023-02-08T23:24:12.792Z,103086.75
2023-02-08T23:26:41.417Z,103083.09
2023-02-08T23:29:09.313Z,103090.87
2023-02-08T23:31:37.337Z,103082.20
2023-02-08T23:34:05.277Z,103084.37
2023-02-08T23:36:33.073Z,103086.72
2023-02-08T23:39:01.953Z,103075.51
2023-02-08T23:41:30.546Z,103074.23
2023-02-08T23:43:58.436Z,103071.61
2023-02-08T23:46:28.075Z,103078.05
2023-02-08T23:48:56.052Z,103075.24
2023-02-08T23:51:26.372Z,103074.63
2023-02-08T23:53:55.295Z,103065.80
2023-02-08T23:56:23.024Z,103076.09
2023-02-08T23:58:51.718Z,103069.45
